sensor_id;sensor_type;location;lat;lon;timestamp;P1;durP1;ratioP1;P2;durP2;ratioP2
81799;SDS011;71195;52.528;5.704;2023-10-13T00:01:31;10.25;;;3.45;;
81799;SDS011;71195;52.528;5.704;2023-10-13T00:04:01;7.75;;;3.40;;
81799;SDS011;71195;52.528;5.704;2023-10-13T00:06:31;8.68;;;3.80;;
81799;SDS011;71195;52.528;5.704;2023-10-13T00:09:00;10.75;;;3.95;;
81799;SDS011;71195;52.528;5.704;2023-10-13T00:11:30;10.48;;;4.43;;
81799;SDS011;71195;52.528;5.704;2023-10-13T00:14:01;10.90;;;3.97;;
81799;SDS011;71195;52.528;5.704;2023-10-13T00:16:30;7.88;;;4.00;;
81799;SDS011;71195;52.528;5.704;2023-10-13T00:19:02;12.65;;;4.85;;
81799;SDS011;71195;52.528;5.704;2023-10-13T00:21:31;11.43;;;5.28;;
81799;SDS011;71195;52.528;5.704;2023-10-13T00:24:01;13.00;;;5.53;;
81799;SDS011;71195;52.528;5.704;2023-10-13T00:26:31;11.65;;;4.60;;
81799;SDS011;71195;52.528;5.704;2023-10-13T00:29:04;9.88;;;4.13;;
81799;SDS011;71195;52.528;5.704;2023-10-13T00:31:42;13.18;;;5.13;;
81799;SDS011;71195;52.528;5.704;2023-10-13T00:34:14;8.93;;;3.78;;
81799;SDS011;71195;52.528;5.704;2023-10-13T00:36:45;9.13;;;4.25;;
81799;SDS011;71195;52.528;5.704;2023-10-13T00:39:36;10.32;;;4.38;;
81799;SDS011;71195;52.528;5.704;2023-10-13T00:42:09;12.32;;;4.90;;
81799;SDS011;71195;52.528;5.704;2023-10-13T00:44:46;9.10;;;4.35;;
81799;SDS011;71195;52.528;5.704;2023-10-13T00:47:14;12.35;;;4.50;;
81799;SDS011;71195;52.528;5.704;2023-10-13T00:50:04;10.90;;;4.95;;
81799;SDS011;71195;52.528;5.704;2023-10-13T00:52:31;10.02;;;5.03;;
81799;SDS011;71195;52.528;5.704;2023-10-13T00:55:07;9.15;;;4.97;;
81799;SDS011;71195;52.528;5.704;2023-10-13T00:57:38;14.07;;;5.70;;
81799;SDS011;71195;52.528;5.704;2023-10-13T01:00:11;10.88;;;5.18;;
81799;SDS011;71195;52.528;5.704;2023-10-13T01:02:44;9.20;;;4.88;;
81799;SDS011;71195;52.528;5.704;2023-10-13T01:05:21;10.60;;;5.10;;
81799;SDS011;71195;52.528;5.704;2023-10-13T01:07:49;14.27;;;4.43;;
81799;SDS011;71195;52.528;5.704;2023-10-13T01:10:20;12.00;;;4.78;;
81799;SDS011;71195;52.528;5.704;2023-10-13T01:12:51;13.07;;;5.72;;
81799;SDS011;71195;52.528;5.704;2023-10-13T01:15:23;12.23;;;4.93;;
81799;SDS011;71195;52.528;5.704;2023-10-13T01:18:05;11.18;;;5.18;;
81799;SDS011;71195;52.528;5.704;2023-10-13T01:20:39;8.73;;;5.78;;
81799;SDS011;71195;52.528;5.704;2023-10-13T01:23:13;15.40;;;5.03;;
81799;SDS011;71195;52.528;5.704;2023-10-13T01:25:44;10.70;;;5.10;;
81799;SDS011;71195;52.528;5.704;2023-10-13T01:28:10;11.63;;;5.22;;
81799;SDS011;71195;52.528;5.704;2023-10-13T01:30:42;9.75;;;4.57;;
81799;SDS011;71195;52.528;5.704;2023-10-13T01:33:10;10.15;;;4.50;;
81799;SDS011;71195;52.528;5.704;2023-10-13T01:35:41;12.90;;;4.32;;
81799;SDS011;71195;52.528;5.704;2023-10-13T01:38:15;10.63;;;4.68;;
81799;SDS011;71195;52.528;5.704;2023-10-13T01:43:16;9.93;;;4.40;;
81799;SDS011;71195;52.528;5.704;2023-10-13T01:45:45;10.57;;;4.13;;
81799;SDS011;71195;52.528;5.704;2023-10-13T01:48:15;12.77;;;5.35;;
81799;SDS011;71195;52.528;5.704;2023-10-13T01:50:47;11.88;;;4.28;;
81799;SDS011;71195;52.528;5.704;2023-10-13T01:53:20;10.90;;;4.55;;
81799;SDS011;71195;52.528;5.704;2023-10-13T01:55:49;8.38;;;3.95;;
81799;SDS011;71195;52.528;5.704;2023-10-13T01:58:16;11.40;;;4.22;;
81799;SDS011;71195;52.528;5.704;2023-10-13T02:00:48;11.48;;;4.22;;
81799;SDS011;71195;52.528;5.704;2023-10-13T02:03:17;10.13;;;4.60;;
81799;SDS011;71195;52.528;5.704;2023-10-13T02:05:47;13.18;;;4.63;;
81799;SDS011;71195;52.528;5.704;2023-10-13T02:08:14;12.55;;;4.88;;
81799;SDS011;71195;52.528;5.704;2023-10-13T02:10:51;9.32;;;4.20;;
81799;SDS011;71195;52.528;5.704;2023-10-13T02:13:19;10.23;;;4.53;;
81799;SDS011;71195;52.528;5.704;2023-10-13T02:15:53;10.32;;;4.05;;
81799;SDS011;71195;52.528;5.704;2023-10-13T02:18:23;9.38;;;3.80;;
81799;SDS011;71195;52.528;5.704;2023-10-13T02:21:02;7.78;;;3.10;;
81799;SDS011;71195;52.528;5.704;2023-10-13T02:23:30;9.80;;;4.30;;
81799;SDS011;71195;52.528;5.704;2023-10-13T02:26:08;8.88;;;4.53;;
81799;SDS011;71195;52.528;5.704;2023-10-13T02:28:38;13.95;;;4.80;;
81799;SDS011;71195;52.528;5.704;2023-10-13T02:31:07;12.13;;;5.22;;
81799;SDS011;71195;52.528;5.704;2023-10-13T02:33:34;11.77;;;4.22;;
81799;SDS011;71195;52.528;5.704;2023-10-13T02:36:10;11.93;;;5.25;;
81799;SDS011;71195;52.528;5.704;2023-10-13T02:38:38;12.48;;;4.53;;
81799;SDS011;71195;52.528;5.704;2023-10-13T02:41:15;10.05;;;5.20;;
81799;SDS011;71195;52.528;5.704;2023-10-13T02:43:51;11.30;;;4.63;;
81799;SDS011;71195;52.528;5.704;2023-10-13T02:46:22;11.52;;;4.90;;
81799;SDS011;71195;52.528;5.704;2023-10-13T02:48:52;9.35;;;4.88;;
81799;SDS011;71195;52.528;5.704;2023-10-13T02:51:24;9.73;;;4.32;;
81799;SDS011;71195;52.528;5.704;2023-10-13T02:53:57;11.48;;;4.72;;
81799;SDS011;71195;52.528;5.704;2023-10-13T02:56:31;9.65;;;4.43;;
81799;SDS011;71195;52.528;5.704;2023-10-13T02:58:57;10.93;;;5.20;;
81799;SDS011;71195;52.528;5.704;2023-10-13T03:01:31;9.55;;;4.43;;
81799;SDS011;71195;52.528;5.704;2023-10-13T03:04:00;16.15;;;4.40;;
81799;SDS011;71195;52.528;5.704;2023-10-13T03:06:34;9.63;;;4.35;;
81799;SDS011;71195;52.528;5.704;2023-10-13T03:09:06;12.25;;;5.30;;
81799;SDS011;71195;52.528;5.704;2023-10-13T03:11:43;9.52;;;4.70;;
81799;SDS011;71195;52.528;5.704;2023-10-13T03:14:13;10.82;;;4.78;;
81799;SDS011;71195;52.528;5.704;2023-10-13T03:16:50;10.15;;;4.47;;
81799;SDS011;71195;52.528;5.704;2023-10-13T03:19:17;9.45;;;4.30;;
81799;SDS011;71195;52.528;5.704;2023-10-13T03:21:47;11.48;;;4.88;;
81799;SDS011;71195;52.528;5.704;2023-10-13T03:24:20;8.60;;;4.28;;
81799;SDS011;71195;52.528;5.704;2023-10-13T03:27:02;9.73;;;4.80;;
81799;SDS011;71195;52.528;5.704;2023-10-13T03:29:38;7.68;;;4.38;;
81799;SDS011;71195;52.528;5.704;2023-10-13T03:32:09;8.70;;;4.28;;
81799;SDS011;71195;52.528;5.704;2023-10-13T03:34:42;8.50;;;3.75;;
81799;SDS011;71195;52.528;5.704;2023-10-13T03:37:20;10.77;;;4.53;;
81799;SDS011;71195;52.528;5.704;2023-10-13T03:40:04;8.48;;;3.60;;
81799;SDS011;71195;52.528;5.704;2023-10-13T03:42:58;10.07;;;3.90;;
81799;SDS011;71195;52.528;5.704;2023-10-13T03:45:30;10.68;;;4.28;;
81799;SDS011;71195;52.528;5.704;2023-10-13T03:48:05;9.27;;;4.20;;
81799;SDS011;71195;52.528;5.704;2023-10-13T03:50:46;9.68;;;4.15;;
81799;SDS011;71195;52.528;5.704;2023-10-13T03:53:27;9.20;;;4.35;;
81799;SDS011;71195;52.528;5.704;2023-10-13T03:55:59;9.35;;;3.50;;
81799;SDS011;71195;52.528;5.704;2023-10-13T03:58:40;10.95;;;3.55;;
81799;SDS011;71195;52.528;5.704;2023-10-13T04:01:11;9.57;;;4.05;;
81799;SDS011;71195;52.528;5.704;2023-10-13T04:03:42;7.15;;;4.05;;
81799;SDS011;71195;52.528;5.704;2023-10-13T04:06:22;8.75;;;4.50;;
81799;SDS011;71195;52.528;5.704;2023-10-13T04:09:13;9.73;;;3.92;;
81799;SDS011;71195;52.528;5.704;2023-10-13T04:11:55;8.10;;;3.70;;
81799;SDS011;71195;52.528;5.704;2023-10-13T04:14:39;10.93;;;4.18;;
81799;SDS011;71195;52.528;5.704;2023-10-13T04:17:34;9.27;;;4.72;;
81799;SDS011;71195;52.528;5.704;2023-10-13T04:20:06;8.80;;;3.42;;
81799;SDS011;71195;52.528;5.704;2023-10-13T04:22:53;8.85;;;3.58;;
81799;SDS011;71195;52.528;5.704;2023-10-13T04:25:34;9.40;;;3.25;;
81799;SDS011;71195;52.528;5.704;2023-10-13T04:28:18;9.10;;;3.83;;
81799;SDS011;71195;52.528;5.704;2023-10-13T04:31:02;6.78;;;3.47;;
81799;SDS011;71195;52.528;5.704;2023-10-13T04:33:50;8.52;;;3.28;;
81799;SDS011;71195;52.528;5.704;2023-10-13T04:36:27;7.45;;;3.65;;
81799;SDS011;71195;52.528;5.704;2023-10-13T04:41:42;7.05;;;2.78;;
81799;SDS011;71195;52.528;5.704;2023-10-13T04:44:23;9.10;;;3.13;;
81799;SDS011;71195;52.528;5.704;2023-10-13T04:47:17;7.45;;;3.47;;
81799;SDS011;71195;52.528;5.704;2023-10-13T04:49:47;6.75;;;3.97;;
81799;SDS011;71195;52.528;5.704;2023-10-13T04:52:17;7.72;;;3.20;;
81799;SDS011;71195;52.528;5.704;2023-10-13T04:54:59;5.63;;;2.72;;
81799;SDS011;71195;52.528;5.704;2023-10-13T04:57:43;5.60;;;2.72;;
81799;SDS011;71195;52.528;5.704;2023-10-13T05:00:19;6.32;;;2.33;;
81799;SDS011;71195;52.528;5.704;2023-10-13T05:03:03;5.28;;;2.28;;
81799;SDS011;71195;52.528;5.704;2023-10-13T05:05:45;6.00;;;2.13;;
81799;SDS011;71195;52.528;5.704;2023-10-13T05:08:34;5.28;;;2.10;;
81799;SDS011;71195;52.528;5.704;2023-10-13T05:11:16;6.18;;;2.45;;
81799;SDS011;71195;52.528;5.704;2023-10-13T05:13:57;2.90;;;1.35;;
81799;SDS011;71195;52.528;5.704;2023-10-13T05:16:48;4.72;;;1.35;;
81799;SDS011;71195;52.528;5.704;2023-10-13T05:19:32;4.75;;;1.60;;
81799;SDS011;71195;52.528;5.704;2023-10-13T05:22:14;3.55;;;1.42;;
81799;SDS011;71195;52.528;5.704;2023-10-13T05:25:01;3.78;;;1.30;;
81799;SDS011;71195;52.528;5.704;2023-10-13T05:27:42;4.43;;;1.40;;
81799;SDS011;71195;52.528;5.704;2023-10-13T05:30:24;2.92;;;1.52;;
81799;SDS011;71195;52.528;5.704;2023-10-13T05:33:05;4.30;;;1.70;;
81799;SDS011;71195;52.528;5.704;2023-10-13T05:35:50;5.10;;;1.45;;
81799;SDS011;71195;52.528;5.704;2023-10-13T05:38:31;3.28;;;1.23;;
81799;SDS011;71195;52.528;5.704;2023-10-13T05:41:13;2.80;;;1.40;;
81799;SDS011;71195;52.528;5.704;2023-10-13T05:43:54;2.88;;;0.75;;
81799;SDS011;71195;52.528;5.704;2023-10-13T05:46:39;3.20;;;1.27;;
81799;SDS011;71195;52.528;5.704;2023-10-13T05:49:32;4.50;;;1.05;;
81799;SDS011;71195;52.528;5.704;2023-10-13T05:52:21;2.53;;;1.15;;
81799;SDS011;71195;52.528;5.704;2023-10-13T05:55:03;4.53;;;1.33;;
81799;SDS011;71195;52.528;5.704;2023-10-13T05:57:45;3.83;;;1.48;;
81799;SDS011;71195;52.528;5.704;2023-10-13T06:00:26;3.53;;;0.77;;
81799;SDS011;71195;52.528;5.704;2023-10-13T06:03:08;3.72;;;1.92;;
81799;SDS011;71195;52.528;5.704;2023-10-13T06:05:49;3.47;;;1.42;;
81799;SDS011;71195;52.528;5.704;2023-10-13T06:08:33;3.80;;;1.08;;
81799;SDS011;71195;52.528;5.704;2023-10-13T06:11:15;2.45;;;0.75;;
81799;SDS011;71195;52.528;5.704;2023-10-13T06:13:56;4.15;;;1.10;;
81799;SDS011;71195;52.528;5.704;2023-10-13T06:16:38;2.42;;;1.00;;
81799;SDS011;71195;52.528;5.704;2023-10-13T06:19:20;3.83;;;1.00;;
81799;SDS011;71195;52.528;5.704;2023-10-13T06:22:01;4.03;;;0.98;;
81799;SDS011;71195;52.528;5.704;2023-10-13T06:24:45;2.50;;;0.93;;
81799;SDS011;71195;52.528;5.704;2023-10-13T06:27:27;6.30;;;1.35;;
81799;SDS011;71195;52.528;5.704;2023-10-13T06:30:09;3.05;;;1.10;;
81799;SDS011;71195;52.528;5.704;2023-10-13T06:32:39;6.07;;;1.40;;
81799;SDS011;71195;52.528;5.704;2023-10-13T06:35:08;4.20;;;1.20;;
81799;SDS011;71195;52.528;5.704;2023-10-13T06:37:44;3.63;;;0.93;;
81799;SDS011;71195;52.528;5.704;2023-10-13T06:40:16;7.15;;;1.38;;
81799;SDS011;71195;52.528;5.704;2023-10-13T06:42:58;6.40;;;1.42;;
81799;SDS011;71195;52.528;5.704;2023-10-13T06:45:42;6.55;;;1.23;;
81799;SDS011;71195;52.528;5.704;2023-10-13T06:48:16;9.75;;;1.55;;
81799;SDS011;71195;52.528;5.704;2023-10-13T06:50:47;3.88;;;1.23;;
81799;SDS011;71195;52.528;5.704;2023-10-13T06:53:17;3.78;;;1.23;;
81799;SDS011;71195;52.528;5.704;2023-10-13T06:55:49;8.85;;;1.70;;
81799;SDS011;71195;52.528;5.704;2023-10-13T06:58:24;4.68;;;1.38;;
81799;SDS011;71195;52.528;5.704;2023-10-13T07:00:54;3.47;;;1.13;;
81799;SDS011;71195;52.528;5.704;2023-10-13T07:03:25;4.70;;;1.80;;
81799;SDS011;71195;52.528;5.704;2023-10-13T07:05:54;5.72;;;1.70;;
81799;SDS011;71195;52.528;5.704;2023-10-13T07:08:25;6.18;;;1.55;;
81799;SDS011;71195;52.528;5.704;2023-10-13T07:10:59;6.03;;;1.55;;
81799;SDS011;71195;52.528;5.704;2023-10-13T07:13:31;4.47;;;1.17;;
81799;SDS011;71195;52.528;5.704;2023-10-13T07:16:04;5.70;;;1.42;;
81799;SDS011;71195;52.528;5.704;2023-10-13T07:18:38;4.68;;;1.23;;
81799;SDS011;71195;52.528;5.704;2023-10-13T07:21:15;10.00;;;1.75;;
81799;SDS011;71195;52.528;5.704;2023-10-13T07:23:50;5.22;;;1.00;;
81799;SDS011;71195;52.528;5.704;2023-10-13T07:26:37;12.00;;;2.92;;
81799;SDS011;71195;52.528;5.704;2023-10-13T07:29:09;6.68;;;2.10;;
81799;SDS011;71195;52.528;5.704;2023-10-13T07:31:38;4.22;;;1.38;;
81799;SDS011;71195;52.528;5.704;2023-10-13T07:36:51;7.28;;;1.50;;
81799;SDS011;71195;52.528;5.704;2023-10-13T07:39:21;10.82;;;1.75;;
81799;SDS011;71195;52.528;5.704;2023-10-13T07:41:53;4.70;;;1.40;;
81799;SDS011;71195;52.528;5.704;2023-10-13T07:44:30;7.47;;;1.85;;
81799;SDS011;71195;52.528;5.704;2023-10-13T07:47:00;6.05;;;1.63;;
81799;SDS011;71195;52.528;5.704;2023-10-13T07:49:33;6.30;;;1.52;;
81799;SDS011;71195;52.528;5.704;2023-10-13T07:52:05;7.75;;;2.20;;
81799;SDS011;71195;52.528;5.704;2023-10-13T07:54:48;6.53;;;2.42;;
81799;SDS011;71195;52.528;5.704;2023-10-13T07:57:27;8.07;;;2.83;;
81799;SDS011;71195;52.528;5.704;2023-10-13T07:59:57;8.05;;;2.10;;
81799;SDS011;71195;52.528;5.704;2023-10-13T08:02:40;7.97;;;2.60;;
81799;SDS011;71195;52.528;5.704;2023-10-13T08:05:17;9.55;;;2.60;;
81799;SDS011;71195;52.528;5.704;2023-10-13T08:10:25;5.60;;;2.90;;
81799;SDS011;71195;52.528;5.704;2023-10-13T08:12:58;7.07;;;2.63;;
81799;SDS011;71195;52.528;5.704;2023-10-13T08:15:27;6.03;;;3.15;;
81799;SDS011;71195;52.528;5.704;2023-10-13T08:18:00;5.85;;;2.58;;
81799;SDS011;71195;52.528;5.704;2023-10-13T08:20:43;7.10;;;2.90;;
81799;SDS011;71195;52.528;5.704;2023-10-13T08:23:12;9.38;;;3.00;;
81799;SDS011;71195;52.528;5.704;2023-10-13T08:25:44;5.00;;;2.38;;
81799;SDS011;71195;52.528;5.704;2023-10-13T08:28:29;6.85;;;2.88;;
81799;SDS011;71195;52.528;5.704;2023-10-13T08:31:19;6.50;;;2.70;;
81799;SDS011;71195;52.528;5.704;2023-10-13T08:36:31;6.45;;;1.77;;
81799;SDS011;71195;52.528;5.704;2023-10-13T08:39:04;8.23;;;2.08;;
81799;SDS011;71195;52.528;5.704;2023-10-13T08:42:04;4.78;;;1.65;;
81799;SDS011;71195;52.528;5.704;2023-10-13T08:44:40;3.72;;;1.67;;
81799;SDS011;71195;52.528;5.704;2023-10-13T08:47:17;4.22;;;1.50;;
81799;SDS011;71195;52.528;5.704;2023-10-13T08:49:50;7.43;;;1.63;;
81799;SDS011;71195;52.528;5.704;2023-10-13T08:52:35;9.73;;;2.80;;
81799;SDS011;71195;52.528;5.704;2023-10-13T08:55:12;6.22;;;1.67;;
81799;SDS011;71195;52.528;5.704;2023-10-13T08:57:54;6.68;;;1.63;;
81799;SDS011;71195;52.528;5.704;2023-10-13T09:00:31;6.88;;;2.33;;
81799;SDS011;71195;52.528;5.704;2023-10-13T09:03:13;4.28;;;1.90;;
81799;SDS011;71195;52.528;5.704;2023-10-13T09:05:56;5.35;;;1.80;;
81799;SDS011;71195;52.528;5.704;2023-10-13T09:08:33;8.23;;;1.75;;
81799;SDS011;71195;52.528;5.704;2023-10-13T09:11:10;6.38;;;1.40;;
81799;SDS011;71195;52.528;5.704;2023-10-13T09:13:38;5.15;;;1.77;;
81799;SDS011;71195;52.528;5.704;2023-10-13T09:16:14;6.78;;;1.90;;
81799;SDS011;71195;52.528;5.704;2023-10-13T09:18:47;5.93;;;1.80;;
81799;SDS011;71195;52.528;5.704;2023-10-13T09:21:18;5.55;;;1.95;;
81799;SDS011;71195;52.528;5.704;2023-10-13T09:24:13;4.88;;;1.63;;
81799;SDS011;71195;52.528;5.704;2023-10-13T09:26:47;7.05;;;2.20;;
81799;SDS011;71195;52.528;5.704;2023-10-13T09:29:15;6.93;;;2.05;;
81799;SDS011;71195;52.528;5.704;2023-10-13T09:31:58;6.40;;;1.77;;
81799;SDS011;71195;52.528;5.704;2023-10-13T09:34:26;8.40;;;1.75;;
81799;SDS011;71195;52.528;5.704;2023-10-13T09:36:59;4.18;;;1.27;;
81799;SDS011;71195;52.528;5.704;2023-10-13T09:39:28;4.10;;;1.92;;
81799;SDS011;71195;52.528;5.704;2023-10-13T09:42:01;6.93;;;2.00;;
81799;SDS011;71195;52.528;5.704;2023-10-13T09:44:29;6.60;;;2.03;;
81799;SDS011;71195;52.528;5.704;2023-10-13T09:47:02;7.32;;;1.83;;
81799;SDS011;71195;52.528;5.704;2023-10-13T09:49:36;8.30;;;2.58;;
81799;SDS011;71195;52.528;5.704;2023-10-13T09:52:15;5.68;;;1.83;;
81799;SDS011;71195;52.528;5.704;2023-10-13T09:57:45;7.35;;;1.83;;
81799;SDS011;71195;52.528;5.704;2023-10-13T10:00:23;6.28;;;1.52;;
81799;SDS011;71195;52.528;5.704;2023-10-13T10:03:24;7.35;;;2.30;;
81799;SDS011;71195;52.528;5.704;2023-10-13T10:06:05;6.20;;;2.10;;
81799;SDS011;71195;52.528;5.704;2023-10-13T10:08:40;7.65;;;1.48;;
81799;SDS011;71195;52.528;5.704;2023-10-13T10:11:18;5.40;;;1.75;;
81799;SDS011;71195;52.528;5.704;2023-10-13T10:14:12;8.70;;;2.38;;
81799;SDS011;71195;52.528;5.704;2023-10-13T10:16:53;8.35;;;2.22;;
81799;SDS011;71195;52.528;5.704;2023-10-13T10:19:44;7.07;;;2.05;;
81799;SDS011;71195;52.528;5.704;2023-10-13T10:22:24;8.35;;;1.60;;
81799;SDS011;71195;52.528;5.704;2023-10-13T10:27:28;5.80;;;1.70;;
81799;SDS011;71195;52.528;5.704;2023-10-13T10:29:58;10.23;;;1.55;;
81799;SDS011;71195;52.528;5.704;2023-10-13T10:32:33;13.00;;;1.85;;
81799;SDS011;71195;52.528;5.704;2023-10-13T10:35:09;7.95;;;1.38;;
81799;SDS011;71195;52.528;5.704;2023-10-13T10:37:46;8.38;;;1.58;;
81799;SDS011;71195;52.528;5.704;2023-10-13T10:40:16;6.68;;;1.65;;
81799;SDS011;71195;52.528;5.704;2023-10-13T10:43:01;4.18;;;1.35;;
81799;SDS011;71195;52.528;5.704;2023-10-13T10:45:35;5.53;;;1.58;;
81799;SDS011;71195;52.528;5.704;2023-10-13T10:48:11;5.70;;;1.58;;
81799;SDS011;71195;52.528;5.704;2023-10-13T10:50:55;7.97;;;2.03;;
81799;SDS011;71195;52.528;5.704;2023-10-13T10:53:24;7.10;;;1.38;;
81799;SDS011;71195;52.528;5.704;2023-10-13T10:56:05;4.70;;;1.70;;
81799;SDS011;71195;52.528;5.704;2023-10-13T10:58:45;8.55;;;2.35;;
81799;SDS011;71195;52.528;5.704;2023-10-13T11:01:16;6.90;;;1.63;;
81799;SDS011;71195;52.528;5.704;2023-10-13T11:03:54;9.20;;;2.00;;
81799;SDS011;71195;52.528;5.704;2023-10-13T11:06:35;8.80;;;2.70;;
81799;SDS011;71195;52.528;5.704;2023-10-13T11:09:07;6.15;;;2.40;;
81799;SDS011;71195;52.528;5.704;2023-10-13T11:11:45;5.95;;;1.70;;
81799;SDS011;71195;52.528;5.704;2023-10-13T11:14:21;5.43;;;1.77;;
81799;SDS011;71195;52.528;5.704;2023-10-13T11:16:54;8.00;;;2.10;;
81799;SDS011;71195;52.528;5.704;2023-10-13T11:22:12;7.95;;;2.15;;
81799;SDS011;71195;52.528;5.704;2023-10-13T11:24:55;7.03;;;3.20;;
81799;SDS011;71195;52.528;5.704;2023-10-13T11:27:28;8.75;;;2.03;;
81799;SDS011;71195;52.528;5.704;2023-10-13T11:30:10;6.32;;;2.03;;
81799;SDS011;71195;52.528;5.704;2023-10-13T11:32:41;7.38;;;2.22;;
81799;SDS011;71195;52.528;5.704;2023-10-13T11:35:10;7.35;;;2.05;;
81799;SDS011;71195;52.528;5.704;2023-10-13T11:37:48;11.95;;;2.35;;
81799;SDS011;71195;52.528;5.704;2023-10-13T11:40:28;7.35;;;2.45;;
81799;SDS011;71195;52.528;5.704;2023-10-13T11:43:11;6.78;;;2.50;;
81799;SDS011;71195;52.528;5.704;2023-10-13T11:45:47;6.15;;;2.00;;
81799;SDS011;71195;52.528;5.704;2023-10-13T11:48:22;6.80;;;1.83;;
81799;SDS011;71195;52.528;5.704;2023-10-13T11:53:35;8.13;;;1.95;;
81799;SDS011;71195;52.528;5.704;2023-10-13T11:56:05;6.43;;;2.30;;
81799;SDS011;71195;52.528;5.704;2023-10-13T11:58:35;7.43;;;2.65;;
81799;SDS011;71195;52.528;5.704;2023-10-13T12:01:05;5.90;;;2.78;;
81799;SDS011;71195;52.528;5.704;2023-10-13T12:03:46;10.60;;;2.15;;
81799;SDS011;71195;52.528;5.704;2023-10-13T12:06:29;6.22;;;2.00;;
81799;SDS011;71195;52.528;5.704;2023-10-13T12:09:15;5.55;;;2.00;;
81799;SDS011;71195;52.528;5.704;2023-10-13T12:12:07;6.38;;;2.10;;
81799;SDS011;71195;52.528;5.704;2023-10-13T12:14:36;8.90;;;2.38;;
81799;SDS011;71195;52.528;5.704;2023-10-13T12:17:18;9.57;;;2.92;;
81799;SDS011;71195;52.528;5.704;2023-10-13T12:19:51;7.90;;;1.90;;
81799;SDS011;71195;52.528;5.704;2023-10-13T12:24:56;4.90;;;1.85;;
81799;SDS011;71195;52.528;5.704;2023-10-13T12:27:30;7.55;;;1.80;;
81799;SDS011;71195;52.528;5.704;2023-10-13T12:30:11;9.35;;;2.13;;
81799;SDS011;71195;52.528;5.704;2023-10-13T12:32:48;8.07;;;2.25;;
81799;SDS011;71195;52.528;5.704;2023-10-13T12:38:10;6.70;;;2.35;;
81799;SDS011;71195;52.528;5.704;2023-10-13T12:41:06;7.65;;;2.42;;
81799;SDS011;71195;52.528;5.704;2023-10-13T12:43:48;8.35;;;2.70;;
81799;SDS011;71195;52.528;5.704;2023-10-13T12:46:32;5.18;;;2.35;;
81799;SDS011;71195;52.528;5.704;2023-10-13T12:49:14;10.65;;;2.83;;
81799;SDS011;71195;52.528;5.704;2023-10-13T12:52:04;9.82;;;2.75;;
81799;SDS011;71195;52.528;5.704;2023-10-13T12:54:41;6.43;;;2.67;;
81799;SDS011;71195;52.528;5.704;2023-10-13T12:57:15;14.07;;;3.42;;
81799;SDS011;71195;52.528;5.704;2023-10-13T12:59:44;6.22;;;2.72;;
81799;SDS011;71195;52.528;5.704;2023-10-13T13:02:13;9.63;;;3.55;;
81799;SDS011;71195;52.528;5.704;2023-10-13T13:04:42;10.30;;;3.88;;
81799;SDS011;71195;52.528;5.704;2023-10-13T13:07:16;15.80;;;4.85;;
81799;SDS011;71195;52.528;5.704;2023-10-13T13:09:46;11.77;;;3.58;;
81799;SDS011;71195;52.528;5.704;2023-10-13T13:12:18;12.15;;;3.40;;
81799;SDS011;71195;52.528;5.704;2023-10-13T13:14:47;10.50;;;2.95;;
81799;SDS011;71195;52.528;5.704;2023-10-13T13:17:20;11.65;;;3.42;;
81799;SDS011;71195;52.528;5.704;2023-10-13T13:19:50;10.98;;;2.80;;
81799;SDS011;71195;52.528;5.704;2023-10-13T13:22:19;7.25;;;2.80;;
81799;SDS011;71195;52.528;5.704;2023-10-13T13:24:48;11.27;;;4.43;;
81799;SDS011;71195;52.528;5.704;2023-10-13T13:27:21;8.02;;;3.10;;
81799;SDS011;71195;52.528;5.704;2023-10-13T13:29:50;8.23;;;2.42;;
81799;SDS011;71195;52.528;5.704;2023-10-13T13:32:20;9.25;;;2.38;;
81799;SDS011;71195;52.528;5.704;2023-10-13T13:34:54;8.52;;;2.88;;
81799;SDS011;71195;52.528;5.704;2023-10-13T13:37:29;10.93;;;3.25;;
81799;SDS011;71195;52.528;5.704;2023-10-13T13:39:58;9.88;;;2.80;;
81799;SDS011;71195;52.528;5.704;2023-10-13T13:42:42;9.95;;;2.47;;
81799;SDS011;71195;52.528;5.704;2023-10-13T13:45:12;11.88;;;3.70;;
81799;SDS011;71195;52.528;5.704;2023-10-13T13:47:47;6.65;;;2.22;;
81799;SDS011;71195;52.528;5.704;2023-10-13T13:50:20;9.82;;;3.28;;
81799;SDS011;71195;52.528;5.704;2023-10-13T13:52:52;13.32;;;2.78;;
81799;SDS011;71195;52.528;5.704;2023-10-13T13:55:22;9.25;;;2.83;;
81799;SDS011;71195;52.528;5.704;2023-10-13T13:57:57;8.55;;;2.75;;
81799;SDS011;71195;52.528;5.704;2023-10-13T14:00:30;5.60;;;2.50;;
81799;SDS011;71195;52.528;5.704;2023-10-13T14:03:14;12.05;;;3.47;;
81799;SDS011;71195;52.528;5.704;2023-10-13T14:05:56;11.20;;;2.63;;
81799;SDS011;71195;52.528;5.704;2023-10-13T14:08:28;6.88;;;2.38;;
81799;SDS011;71195;52.528;5.704;2023-10-13T14:10:57;5.95;;;2.55;;
81799;SDS011;71195;52.528;5.704;2023-10-13T14:16:18;11.25;;;2.47;;
81799;SDS011;71195;52.528;5.704;2023-10-13T14:18:49;7.13;;;2.58;;
81799;SDS011;71195;52.528;5.704;2023-10-13T14:21:19;10.35;;;2.35;;
81799;SDS011;71195;52.528;5.704;2023-10-13T14:23:50;5.03;;;2.25;;
81799;SDS011;71195;52.528;5.704;2023-10-13T14:26:21;9.73;;;2.63;;
81799;SDS011;71195;52.528;5.704;2023-10-13T14:28:53;13.25;;;3.13;;
81799;SDS011;71195;52.528;5.704;2023-10-13T14:31:31;10.50;;;3.40;;
81799;SDS011;71195;52.528;5.704;2023-10-13T14:34:02;8.43;;;2.95;;
81799;SDS011;71195;52.528;5.704;2023-10-13T14:36:32;11.75;;;2.92;;
81799;SDS011;71195;52.528;5.704;2023-10-13T14:39:05;8.35;;;2.50;;
81799;SDS011;71195;52.528;5.704;2023-10-13T14:41:36;7.15;;;2.97;;
81799;SDS011;71195;52.528;5.704;2023-10-13T14:44:08;6.57;;;3.00;;
81799;SDS011;71195;52.528;5.704;2023-10-13T14:46:41;12.27;;;3.33;;
81799;SDS011;71195;52.528;5.704;2023-10-13T14:49:10;12.98;;;4.10;;
81799;SDS011;71195;52.528;5.704;2023-10-13T14:51:44;11.50;;;2.85;;
81799;SDS011;71195;52.528;5.704;2023-10-13T14:54:15;10.40;;;3.33;;
81799;SDS011;71195;52.528;5.704;2023-10-13T14:56:51;10.00;;;2.80;;
81799;SDS011;71195;52.528;5.704;2023-10-13T14:59:24;7.65;;;3.35;;
81799;SDS011;71195;52.528;5.704;2023-10-13T15:01:53;7.55;;;2.85;;
81799;SDS011;71195;52.528;5.704;2023-10-13T15:04:22;10.07;;;2.88;;
81799;SDS011;71195;52.528;5.704;2023-10-13T15:06:54;9.50;;;3.10;;
81799;SDS011;71195;52.528;5.704;2023-10-13T15:09:23;8.23;;;2.95;;
81799;SDS011;71195;52.528;5.704;2023-10-13T15:11:52;8.48;;;2.75;;
81799;SDS011;71195;52.528;5.704;2023-10-13T15:14:24;7.97;;;2.47;;
81799;SDS011;71195;52.528;5.704;2023-10-13T15:16:53;8.60;;;2.83;;
81799;SDS011;71195;52.528;5.704;2023-10-13T15:19:26;9.27;;;2.53;;
81799;SDS011;71195;52.528;5.704;2023-10-13T15:21:55;8.07;;;2.28;;
81799;SDS011;71195;52.528;5.704;2023-10-13T15:24:25;8.15;;;2.45;;
81799;SDS011;71195;52.528;5.704;2023-10-13T15:26:54;7.90;;;1.80;;
81799;SDS011;71195;52.528;5.704;2023-10-13T15:29:30;5.30;;;1.20;;
81799;SDS011;71195;52.528;5.704;2023-10-13T15:32:04;6.45;;;1.80;;
81799;SDS011;71195;52.528;5.704;2023-10-13T15:37:23;4.30;;;1.33;;
81799;SDS011;71195;52.528;5.704;2023-10-13T15:39:53;3.55;;;0.93;;
81799;SDS011;71195;52.528;5.704;2023-10-13T15:42:25;4.43;;;0.75;;
81799;SDS011;71195;52.528;5.704;2023-10-13T15:44:57;4.45;;;0.80;;
81799;SDS011;71195;52.528;5.704;2023-10-13T15:47:26;4.45;;;0.65;;
81799;SDS011;71195;52.528;5.704;2023-10-13T15:50:01;6.13;;;0.82;;
81799;SDS011;71195;52.528;5.704;2023-10-13T15:52:30;4.20;;;0.70;;
81799;SDS011;71195;52.528;5.704;2023-10-13T15:54:59;5.10;;;0.85;;
81799;SDS011;71195;52.528;5.704;2023-10-13T15:57:30;7.13;;;1.25;;
81799;SDS011;71195;52.528;5.704;2023-10-13T16:00:05;2.65;;;0.82;;
81799;SDS011;71195;52.528;5.704;2023-10-13T16:02:49;5.05;;;1.30;;
81799;SDS011;71195;52.528;5.704;2023-10-13T16:05:20;5.45;;;1.35;;
81799;SDS011;71195;52.528;5.704;2023-10-13T16:07:51;6.43;;;1.70;;